createdAt,value
2023-05-18T02:01:23.060Z,19.60
2023-05-18T02:03:51.968Z,19.60
2023-05-18T02:06:20.958Z,19.50
2023-05-18T02:08:49.599Z,19.50
2023-05-18T02:11:18.783Z,19.50
2023-05-18T02:13:47.399Z,19.50
2023-05-18T02:16:17.512Z,19.50
2023-05-18T02:18:46.406Z,19.50
2023-05-18T02:21:16.804Z,19.50
2023-05-18T02:23:45.342Z,19.50
2023-05-18T02:26:16.410Z,19.50
2023-05-18T02:28:45.101Z,19.50
2023-05-18T02:31:14.027Z,19.50
2023-05-18T02:33:42.586Z,19.50
2023-05-18T02:36:13.208Z,19.50
2023-05-18T02:38:44.534Z,19.50
2023-05-18T02:41:13.956Z,19.50
2023-05-18T02:43:42.552Z,19.50
2023-05-18T02:46:11.375Z,19.50
2023-05-18T02:48:39.927Z,19.50
2023-05-18T02:51:08.859Z,19.50
2023-05-18T02:53:37.412Z,19.50
2023-05-18T02:56:12.598Z,19.50
2023-05-18T02:59:04.156Z,19.50
2023-05-18T03:01:37.993Z,19.50
2023-05-18T03:04:07.095Z,19.50
2023-05-18T03:06:39.355Z,19.50
2023-05-18T03:09:07.900Z,19.50
2023-05-18T03:11:42.317Z,19.50
2023-05-18T03:14:11.944Z,19.50
2023-05-18T03:16:41.088Z,19.50
2023-05-18T03:19:16.538Z,19.50
2023-05-18T03:21:45.658Z,19.50
2023-05-18T03:24:14.865Z,19.50
2023-05-18T03:26:45.498Z,19.50
2023-05-18T03:29:14.088Z,19.50
2023-05-18T03:31:44.070Z,19.50
2023-05-18T03:34:14.425Z,19.50
2023-05-18T03:36:47.734Z,19.50
2023-05-18T03:39:16.869Z,19.50
2023-05-18T03:41:45.727Z,19.50
2023-05-18T03:44:14.403Z,19.50
2023-05-18T03:46:44.099Z,19.50
2023-05-18T03:49:12.795Z,19.50
2023-05-18T03:51:44.243Z,19.50
2023-05-18T03:54:12.808Z,19.50
2023-05-18T03:56:42.288Z,19.50
2023-05-18T03:59:10.762Z,19.50
2023-05-18T04:01:42.594Z,19.50
2023-05-18T04:04:18.702Z,19.50
2023-05-18T04:06:49.658Z,19.40
2023-05-18T04:09:19.422Z,19.50
2023-05-18T04:11:48.218Z,19.50
2023-05-18T04:14:17.667Z,19.50
2023-05-18T04:16:47.581Z,19.50
2023-05-18T04:19:16.262Z,19.50
2023-05-18T04:21:47.878Z,19.50
2023-05-18T04:24:16.625Z,19.50
2023-05-18T04:26:45.508Z,19.50
2023-05-18T04:29:14.078Z,19.50
2023-05-18T04:31:46.718Z,19.50
2023-05-18T04:34:18.159Z,19.50
2023-05-18T04:36:48.288Z,19.60
2023-05-18T04:39:18.434Z,19.60
2023-05-18T04:41:47.269Z,19.60
2023-05-18T04:44:18.511Z,19.60
2023-05-18T04:46:47.611Z,19.60
2023-05-18T04:49:16.806Z,19.60
2023-05-18T04:51:47.210Z,19.60
2023-05-18T04:54:16.411Z,19.60
2023-05-18T04:56:47.694Z,19.60
2023-05-18T04:59:16.345Z,19.60
2023-05-18T05:01:45.609Z,19.60
2023-05-18T05:04:14.197Z,19.60
2023-05-18T05:06:43.447Z,19.60
2023-05-18T05:09:14.343Z,19.60
2023-05-18T05:11:43.216Z,19.60
2023-05-18T05:14:11.899Z,19.60
2023-05-18T05:16:40.728Z,19.70
2023-05-18T05:19:09.291Z,19.60
2023-05-18T05:21:38.221Z,19.70
2023-05-18T05:24:08.685Z,19.60
2023-05-18T05:26:38.490Z,19.60
2023-05-18T05:29:09.470Z,19.70
2023-05-18T05:31:38.451Z,19.60
2023-05-18T05:34:07.008Z,19.70
2023-05-18T05:36:36.331Z,19.70
2023-05-18T05:39:04.943Z,19.70
2023-05-18T05:41:34.752Z,19.70
2023-05-18T05:44:03.475Z,19.60
2023-05-18T05:46:32.401Z,19.70
2023-05-18T05:49:02.913Z,19.60
2023-05-18T05:51:31.792Z,19.60
2023-05-18T05:54:00.613Z,19.70
2023-05-18T05:56:29.412Z,19.70
2023-05-18T05:58:58.144Z,19.70
2023-05-18T06:01:27.785Z,19.70
2023-05-18T06:03:56.524Z,19.70
2023-05-18T06:08:54.252Z,19.70
2023-05-18T06:42:07.568Z,19.40
2023-05-18T06:44:36.215Z,19.30
2023-05-18T06:47:11.872Z,19.40
2023-05-18T06:49:40.586Z,19.40
2023-05-18T06:52:10.570Z,19.50
2023-05-18T06:54:39.598Z,19.50
2023-05-18T06:57:08.681Z,19.50
2023-05-18T06:59:37.163Z,19.40
2023-05-18T07:02:07.214Z,19.40
2023-05-18T07:07:05.230Z,19.30
2023-05-18T07:09:33.657Z,19.30
2023-05-18T07:12:02.449Z,19.40
2023-05-18T07:14:30.860Z,19.40
2023-05-18T07:16:59.874Z,19.40
2023-05-18T07:19:28.540Z,19.40
2023-05-18T07:21:59.748Z,19.40
2023-05-18T07:24:28.231Z,19.40
2023-05-18T07:26:58.292Z,19.40
2023-05-18T07:29:29.465Z,19.50
2023-05-18T07:31:58.248Z,19.50
2023-05-18T07:34:27.567Z,19.60
2023-05-18T07:36:56.397Z,19.60
2023-05-18T07:39:28.958Z,19.50
2023-05-18T07:41:57.751Z,19.50
2023-05-18T07:44:26.262Z,19.50
2023-05-18T07:46:55.025Z,19.60
2023-05-18T07:49:23.623Z,19.60
2023-05-18T07:51:52.745Z,19.60
2023-05-18T07:54:21.278Z,19.60
2023-05-18T07:59:19.009Z,19.70
2023-05-18T08:01:49.444Z,19.70
2023-05-18T08:04:17.957Z,19.70
2023-05-18T08:06:47.424Z,19.70
2023-05-18T08:09:15.995Z,19.70
2023-05-18T08:11:45.373Z,19.70
2023-05-18T08:14:13.827Z,19.70
2023-05-18T08:16:42.665Z,19.70
2023-05-18T08:19:11.161Z,19.70
2023-05-18T08:21:40.096Z,19.70
2023-05-18T08:24:09.602Z,19.70
2023-05-18T08:26:38.529Z,19.70
2023-05-18T08:29:10.542Z,19.70
2023-05-18T08:31:40.220Z,19.70
2023-05-18T08:34:08.897Z,19.80
2023-05-18T08:36:37.720Z,19.80
2023-05-18T08:39:06.297Z,19.80
2023-05-18T08:42:19.481Z,19.80
2023-05-18T08:44:59.055Z,19.80
2023-05-18T08:47:30.966Z,19.80
2023-05-18T08:49:59.419Z,19.70
2023-05-18T08:52:28.499Z,19.70
2023-05-18T08:54:57.047Z,19.70
2023-05-18T08:57:26.563Z,19.70
2023-05-18T08:59:55.084Z,19.70
2023-05-18T09:02:23.886Z,19.80
2023-05-18T09:04:52.377Z,19.80
2023-05-18T09:07:21.635Z,19.80
2023-05-18T09:09:50.101Z,19.80
2023-05-18T09:12:19.505Z,19.80
2023-05-18T09:14:47.908Z,19.80
2023-05-18T09:17:16.761Z,19.80
2023-05-18T09:19:45.460Z,19.80
2023-05-18T09:22:15.384Z,19.90
2023-05-18T09:24:43.893Z,19.80
2023-05-18T09:27:12.688Z,19.80
2023-05-18T09:29:58.012Z,19.80
2023-05-18T09:32:27.092Z,19.80
2023-05-18T09:34:55.726Z,19.80
2023-05-18T09:37:24.517Z,19.90
2023-05-18T09:40:08.227Z,19.90
2023-05-18T09:42:41.736Z,19.80
2023-05-18T09:45:24.003Z,19.80
2023-05-18T09:47:53.352Z,19.80
2023-05-18T09:50:25.161Z,19.70
2023-05-18T09:52:53.948Z,19.70
2023-05-18T09:55:22.418Z,19.70
2023-05-18T09:57:51.290Z,19.70
2023-05-18T10:00:21.768Z,19.80
2023-05-18T10:02:53.412Z,19.70
2023-05-18T10:08:05.834Z,19.80
2023-05-18T10:10:38.276Z,19.70
2023-05-18T10:13:07.053Z,19.70
2023-05-18T10:15:36.017Z,19.70
2023-05-18T10:18:05.237Z,19.60
2023-05-18T10:20:33.780Z,19.60
2023-05-18T10:23:03.922Z,19.60
2023-05-18T10:25:32.512Z,19.60
2023-05-18T10:28:05.166Z,19.70
2023-05-18T10:30:34.976Z,19.70
2023-05-18T10:33:06.965Z,19.70
2023-05-18T10:35:40.112Z,19.70
2023-05-18T10:38:08.857Z,19.70
2023-05-18T10:40:37.461Z,19.80
2023-05-18T10:43:06.574Z,19.80
2023-05-18T10:45:35.256Z,19.80
2023-05-18T10:48:05.921Z,19.80
2023-05-18T10:50:34.423Z,19.80
2023-05-18T10:53:03.486Z,19.80
2023-05-18T10:55:31.921Z,19.90
2023-05-18T10:58:07.763Z,19.80
2023-05-18T11:00:36.423Z,19.80
2023-05-18T11:03:08.242Z,19.80
2023-05-18T11:05:36.997Z,19.80
2023-05-18T11:08:06.069Z,19.90
2023-05-18T11:10:47.529Z,19.80
2023-05-18T11:13:16.337Z,19.90
2023-05-18T11:15:54.097Z,20.00
2023-05-18T11:18:39.869Z,19.90
2023-05-18T11:21:36.412Z,19.90
2023-05-18T11:24:31.632Z,19.90
2023-05-18T11:27:15.388Z,19.80
2023-05-18T11:29:55.483Z,19.80
2023-05-18T11:32:34.304Z,19.90
2023-05-18T11:35:05.994Z,19.90
2023-05-18T11:37:40.401Z,19.90
2023-05-18T11:40:13.982Z,19.90
2023-05-18T11:42:42.513Z,20.00
2023-05-18T11:45:12.828Z,20.00
2023-05-18T11:47:41.823Z,20.00
2023-05-18T11:50:14.956Z,20.00
2023-05-18T11:52:48.022Z,20.00
2023-05-18T11:55:18.365Z,20.00
2023-05-18T11:57:50.425Z,20.10
2023-05-18T12:02:49.360Z,20.00
2023-05-18T12:10:30.701Z,20.10
2023-05-18T12:15:29.211Z,20.10
2023-05-18T12:17:59.463Z,20.00
2023-05-18T12:20:29.754Z,20.00
2023-05-18T12:22:58.569Z,20.10
2023-05-18T12:25:28.208Z,20.10
2023-05-18T12:27:57.377Z,20.10
2023-05-18T12:33:05.197Z,20.10
2023-05-18T12:35:34.551Z,20.10
2023-05-18T12:38:03.407Z,20.00
2023-05-18T12:40:46.702Z,20.00
2023-05-18T12:43:15.517Z,20.00
2023-05-18T12:45:45.187Z,20.00
2023-05-18T12:48:15.258Z,20.10
2023-05-18T12:50:49.031Z,20.10
2023-05-18T12:53:18.169Z,20.10
2023-05-18T12:55:59.978Z,20.10
2023-05-18T12:58:28.610Z,20.10
2023-05-18T13:00:57.518Z,20.10
2023-05-18T13:03:26.170Z,20.10
2023-05-18T13:06:08.920Z,20.10
2023-05-18T13:08:37.837Z,20.10
2023-05-18T13:11:14.108Z,20.10
2023-05-18T13:14:06.654Z,20.10
2023-05-18T13:16:39.110Z,20.20
2023-05-18T13:19:11.660Z,20.20
2023-05-18T13:21:40.620Z,20.20
2023-05-18T13:36:36.914Z,20.30
2023-05-18T13:39:07.640Z,20.40
2023-05-18T13:41:36.840Z,20.40
2023-05-18T13:44:05.690Z,20.40
2023-05-18T17:55:41.823Z,20.40
2023-05-18T17:58:10.342Z,20.40
2023-05-18T18:28:03.780Z,20.30
2023-05-18T19:00:27.785Z,20.30
2023-05-18T19:02:56.382Z,20.30
2023-05-18T19:05:25.506Z,20.30
2023-05-18T19:07:56.015Z,20.20
2023-05-18T19:10:26.368Z,20.20
2023-05-18T19:12:55.275Z,20.20
2023-05-18T19:15:24.345Z,20.20
2023-05-18T19:17:54.170Z,20.20
2023-05-18T19:20:23.330Z,20.20
2023-05-18T19:22:53.724Z,20.20
2023-05-18T19:25:26.547Z,20.20
2023-05-18T19:27:55.322Z,20.20
2023-05-18T19:30:24.510Z,20.20
2023-05-18T19:32:53.607Z,20.20
2023-05-18T19:35:25.962Z,20.10
2023-05-18T19:37:54.524Z,20.10
2023-05-18T19:40:27.324Z,20.10
2023-05-18T19:42:56.372Z,20.10
2023-05-18T19:45:26.703Z,20.20
2023-05-18T19:47:55.724Z,20.10
2023-05-18T19:50:24.784Z,20.10
2023-05-18T19:52:53.308Z,20.10
2023-05-18T19:55:22.771Z,20.10
2023-05-18T19:57:51.523Z,20.10
2023-05-18T20:00:20.595Z,20.10
2023-05-18T20:02:49.801Z,20.10
2023-05-18T20:05:19.097Z,20.20
2023-05-18T20:12:47.408Z,20.10
2023-05-18T20:15:16.791Z,20.10
2023-05-18T20:17:45.476Z,20.10
2023-05-18T20:20:14.599Z,20.10
2023-05-18T20:22:43.092Z,20.10
2023-05-18T20:25:13.153Z,20.10
2023-05-18T20:27:41.874Z,20.10
2023-05-18T20:30:11.037Z,20.20
2023-05-18T20:32:39.559Z,20.10
2023-05-18T20:35:08.516Z,20.20
2023-05-18T20:37:37.977Z,20.20
2023-05-18T20:40:09.747Z,20.20
2023-05-18T20:42:40.909Z,20.20
2023-05-18T20:45:10.557Z,20.30
2023-05-18T20:47:42.067Z,20.30
2023-05-18T20:50:11.490Z,20.30
2023-05-18T20:52:40.085Z,20.30
2023-05-18T20:55:09.482Z,20.30
2023-05-18T20:57:41.208Z,20.30
2023-05-18T21:00:12.270Z,20.30
2023-05-18T21:02:45.596Z,20.30
2023-05-18T21:05:15.111Z,20.30
2023-05-18T21:07:44.051Z,20.30
2023-05-18T21:10:13.328Z,20.30
2023-05-18T21:12:41.989Z,20.30
2023-05-18T21:15:11.368Z,20.30
2023-05-18T21:17:39.884Z,20.30
2023-05-18T21:20:10.142Z,20.40
2023-05-18T21:22:38.644Z,20.40
2023-05-18T21:25:08.055Z,20.40
2023-05-18T21:27:37.499Z,20.40
2023-05-18T21:30:07.583Z,20.40
2023-05-18T21:32:36.452Z,20.30
2023-05-18T21:35:06.202Z,20.30
2023-05-18T21:37:34.792Z,20.40
2023-05-18T21:40:03.789Z,20.40
2023-05-18T21:42:33.623Z,20.40
2023-05-18T21:45:02.493Z,20.30
2023-05-18T21:47:31.516Z,20.40
2023-05-18T21:50:00.693Z,20.40
2023-05-18T21:52:29.314Z,20.40
2023-05-18T21:54:58.231Z,20.40
2023-05-18T21:57:26.788Z,20.40
2023-05-18T21:59:55.768Z,20.40
2023-05-18T22:02:24.385Z,20.40
2023-05-18T22:04:53.667Z,20.40
2023-05-18T22:07:22.273Z,20.40
2023-05-18T22:09:53.505Z,20.40
2023-05-18T22:12:22.195Z,20.40
2023-05-18T22:14:51.128Z,20.40
2023-05-18T22:17:19.932Z,20.40
2023-05-18T22:19:49.414Z,20.40
2023-05-18T22:22:29.196Z,20.40
2023-05-18T22:24:58.991Z,20.40
2023-05-18T22:27:27.633Z,20.40
2023-05-18T22:29:57.538Z,20.40
2023-05-18T22:32:26.339Z,20.40
2023-05-18T22:34:56.269Z,20.40
2023-05-18T22:37:24.907Z,20.40
2023-05-18T22:39:54.048Z,20.40
2023-05-18T22:42:22.637Z,20.40
2023-05-18T22:44:51.763Z,20.40
2023-05-18T22:47:23.803Z,20.40
2023-05-18T22:49:52.920Z,20.40
2023-05-18T22:52:21.476Z,20.40
2023-05-18T22:54:50.786Z,20.40
2023-05-18T22:57:19.383Z,20.40
2023-05-18T22:59:48.344Z,20.40
2023-05-18T23:02:16.996Z,20.40
2023-05-18T23:04:46.016Z,20.40
2023-05-18T23:07:14.522Z,20.40
2023-05-18T23:09:43.381Z,20.40
2023-05-18T23:12:11.881Z,20.40
2023-05-18T23:14:40.728Z,20.40
2023-05-18T23:17:09.267Z,20.40
2023-05-18T23:19:38.730Z,20.40
2023-05-18T23:22:07.253Z,20.40
2023-05-18T23:24:36.439Z,20.40
2023-05-18T23:27:05.073Z,20.40
2023-05-18T23:29:33.859Z,20.40
2023-05-18T23:32:03.611Z,20.40
2023-05-18T23:34:32.870Z,20.40
2023-05-18T23:37:10.840Z,20.40
2023-05-18T23:39:44.120Z,20.40
2023-05-18T23:42:12.961Z,20.40
2023-05-18T23:44:42.315Z,20.40
2023-05-18T23:47:11.654Z,20.40
2023-05-18T23:49:40.866Z,20.40
2023-05-18T23:52:10.742Z,20.40
2023-05-18T23:54:40.788Z,20.40
2023-05-18T23:57:10.260Z,20.40
2023-05-18T23:59:39.229Z,20.40
